Chenoa, IL (61726)

10:59 AM CST on February 19, 2017 (GMT -0600)
Lake Bloomington | | Change Station
Active Advisory: Dense Fog Advisory

Elev 748 ft 40.65 °N, 88.93 °W | Updated 52 seconds ago

Clear
Clear
61.7 °F
Feels Like 61.7 °F
N
1.3
Wind Variable Wind from WSW
Gusts 2.5 mph

Today
High -- | Low -- °F
--% Chance of Precip.
Yesterday
High -- | Low -- °F
Precip. -- in
Pressure 30.07 in
Visibility 10.0 miles
Clouds Clear
Dew Point 42 °F
Humidity 49%
Rainfall 0.00 in
Snow Depth Not available.
6:43 AM 5:34 PM
Last Quarter, 42% visible
METAR KPNT 191655Z AUTO 16003KT 10SM CLR 15/06 A3007 RMK AO2 T01500064
Pressure 30.07 in
Visibility 10.0 miles
Clouds Clear
Dew Point 42 °F
Humidity 49%
Rainfall 0.00 in
Snow Depth Not available.
6:43 AM 5:34 PM
Last Quarter, 42% visible
METAR KPNT 191655Z AUTO 16003KT 10SM CLR 15/06 A3007 RMK AO2 T01500064

Get Your Daily Forecast Email!

Thanks for signing up!

Be on the lookout for a verification email in your inbox.

You'll start receiving the daily forecast at 8 AM.

×

10-Day Weather Forecast

Almanac

Astronomy

Feb. 19, 2017 Rise Set
Actual Time
Civil Twilight
Nautical Twilight
Astronomical Twilight
Moon
Length of Visible Light
Length of Day
Tomorrow will be .
, % of the Moon is Illuminated

Today's Extremes

State Highs State Lows

Community

WunderPhotos

Upload Photos

1,962,540 photos uploaded!

WunderBlog® & News

Nearby

Air Quality

  Air Quality AQ Index Pollutant
Not available.

Snow Depth

Station Depth Elevation

Earthquake Activity

City Distance Mag. Time & Date
Minimum magnitude displayed is 2.5.

Coastal Water Temperatures

Place Temperature

Stations

Nearby Weather Stations

Station Location Temp. Windchill Dew Point Humidity Wind Precip. Elev Updated Type
                   

Watches & Warnings

Dense Fog Advisory
Issued: 8:34 AM CST Feb. 19, 2017 – National Weather Service

... Dense fog advisory now in effect until 11 am CST this
morning...

* visibility... one quarter mile or less at times.

* Impacts... areas of low visibility and rapid changes in
visibility will cause hazardous driving conditions.

Precautionary/preparedness actions...

A dense fog advisory means visibilities will frequently be
reduced to less than one quarter mile. If driving... slow down...
use your headlights... and leave plenty of distance ahead of you.